sensor_id;sensor_type;location;lat;lon;timestamp;P1;durP1;ratioP1;P2;durP2;ratioP2
7199;SDS011;3641;49.082;8.200;2022-12-08T00:02:23;41.47;;;19.83;;
7199;SDS011;3641;49.082;8.200;2022-12-08T00:04:49;36.83;;;18.52;;
7199;SDS011;3641;49.082;8.200;2022-12-08T00:07:33;37.63;;;18.65;;
7199;SDS011;3641;49.082;8.200;2022-12-08T00:10:20;38.55;;;18.35;;
7199;SDS011;3641;49.082;8.200;2022-12-08T00:12:48;42.97;;;19.33;;
7199;SDS011;3641;49.082;8.200;2022-12-08T00:15:15;39.30;;;18.45;;
7199;SDS011;3641;49.082;8.200;2022-12-08T00:17:41;38.03;;;18.80;;
7199;SDS011;3641;49.082;8.200;2022-12-08T00:20:08;38.67;;;18.50;;
7199;SDS011;3641;49.082;8.200;2022-12-08T00:22:35;36.28;;;17.73;;
7199;SDS011;3641;49.082;8.200;2022-12-08T00:25:02;36.97;;;17.50;;
7199;SDS011;3641;49.082;8.200;2022-12-08T00:27:28;37.53;;;17.80;;
7199;SDS011;3641;49.082;8.200;2022-12-08T00:29:56;37.72;;;18.02;;
7199;SDS011;3641;49.082;8.200;2022-12-08T00:32:22;34.40;;;17.05;;
7199;SDS011;3641;49.082;8.200;2022-12-08T00:34:49;37.95;;;18.85;;
7199;SDS011;3641;49.082;8.200;2022-12-08T00:37:15;37.00;;;17.30;;
7199;SDS011;3641;49.082;8.200;2022-12-08T00:39:42;39.17;;;17.98;;
7199;SDS011;3641;49.082;8.200;2022-12-08T00:42:08;38.88;;;17.73;;
7199;SDS011;3641;49.082;8.200;2022-12-08T00:44:38;35.08;;;16.92;;
7199;SDS011;3641;49.082;8.200;2022-12-08T00:47:06;35.28;;;17.30;;
7199;SDS011;3641;49.082;8.200;2022-12-08T00:49:32;35.30;;;17.33;;
7199;SDS011;3641;49.082;8.200;2022-12-08T00:51:59;34.85;;;16.70;;
7199;SDS011;3641;49.082;8.200;2022-12-08T00:54:25;36.30;;;16.92;;
7199;SDS011;3641;49.082;8.200;2022-12-08T00:56:52;33.08;;;16.45;;
7199;SDS011;3641;49.082;8.200;2022-12-08T00:59:18;34.90;;;16.50;;
7199;SDS011;3641;49.082;8.200;2022-12-08T01:01:45;36.17;;;17.13;;
7199;SDS011;3641;49.082;8.200;2022-12-08T01:04:15;34.85;;;16.35;;
7199;SDS011;3641;49.082;8.200;2022-12-08T01:06:43;32.85;;;16.38;;
7199;SDS011;3641;49.082;8.200;2022-12-08T01:09:10;33.05;;;16.35;;
7199;SDS011;3641;49.082;8.200;2022-12-08T01:11:38;33.08;;;15.98;;
7199;SDS011;3641;49.082;8.200;2022-12-08T01:14:05;35.10;;;16.35;;
7199;SDS011;3641;49.082;8.200;2022-12-08T01:16:32;34.08;;;16.95;;
7199;SDS011;3641;49.082;8.200;2022-12-08T01:19:01;32.22;;;15.85;;
7199;SDS011;3641;49.082;8.200;2022-12-08T01:21:29;32.65;;;16.63;;
7199;SDS011;3641;49.082;8.200;2022-12-08T01:23:57;35.33;;;16.10;;
7199;SDS011;3641;49.082;8.200;2022-12-08T01:26:25;28.73;;;14.98;;
7199;SDS011;3641;49.082;8.200;2022-12-08T01:28:51;32.50;;;16.20;;
7199;SDS011;3641;49.082;8.200;2022-12-08T01:31:18;35.50;;;16.20;;
7199;SDS011;3641;49.082;8.200;2022-12-08T01:33:46;31.90;;;15.63;;
7199;SDS011;3641;49.082;8.200;2022-12-08T01:36:17;31.23;;;16.15;;
7199;SDS011;3641;49.082;8.200;2022-12-08T01:38:46;33.42;;;16.02;;
7199;SDS011;3641;49.082;8.200;2022-12-08T01:41:13;31.88;;;15.80;;
7199;SDS011;3641;49.082;8.200;2022-12-08T01:43:45;34.95;;;15.40;;
7199;SDS011;3641;49.082;8.200;2022-12-08T01:46:20;30.75;;;15.02;;
7199;SDS011;3641;49.082;8.200;2022-12-08T01:48:46;30.08;;;14.60;;
7199;SDS011;3641;49.082;8.200;2022-12-08T01:51:14;33.20;;;15.65;;
7199;SDS011;3641;49.082;8.200;2022-12-08T01:53:40;30.33;;;14.43;;
7199;SDS011;3641;49.082;8.200;2022-12-08T01:56:08;31.58;;;15.30;;
7199;SDS011;3641;49.082;8.200;2022-12-08T01:58:38;31.45;;;15.07;;
7199;SDS011;3641;49.082;8.200;2022-12-08T02:01:08;34.92;;;15.27;;
7199;SDS011;3641;49.082;8.200;2022-12-08T02:03:37;33.97;;;15.93;;
7199;SDS011;3641;49.082;8.200;2022-12-08T02:06:08;30.42;;;14.95;;
7199;SDS011;3641;49.082;8.200;2022-12-08T02:08:36;33.85;;;15.75;;
7199;SDS011;3641;49.082;8.200;2022-12-08T02:11:08;33.30;;;15.00;;
7199;SDS011;3641;49.082;8.200;2022-12-08T02:13:36;29.73;;;15.18;;
7199;SDS011;3641;49.082;8.200;2022-12-08T02:16:04;30.35;;;15.07;;
7199;SDS011;3641;49.082;8.200;2022-12-08T02:18:42;33.65;;;15.73;;
7199;SDS011;3641;49.082;8.200;2022-12-08T02:21:23;32.75;;;15.05;;
7199;SDS011;3641;49.082;8.200;2022-12-08T02:23:58;32.20;;;15.27;;
7199;SDS011;3641;49.082;8.200;2022-12-08T02:26:59;31.63;;;15.65;;
7199;SDS011;3641;49.082;8.200;2022-12-08T02:30:12;29.20;;;15.35;;
7199;SDS011;3641;49.082;8.200;2022-12-08T02:33:00;28.67;;;14.68;;
7199;SDS011;3641;49.082;8.200;2022-12-08T02:35:57;33.72;;;16.02;;
7199;SDS011;3641;49.082;8.200;2022-12-08T02:38:27;31.67;;;15.68;;
7199;SDS011;3641;49.082;8.200;2022-12-08T02:41:07;30.88;;;14.93;;
7199;SDS011;3641;49.082;8.200;2022-12-08T02:43:43;31.50;;;16.08;;
7199;SDS011;3641;49.082;8.200;2022-12-08T02:46:14;33.65;;;15.15;;
7199;SDS011;3641;49.082;8.200;2022-12-08T02:48:44;33.28;;;17.00;;
7199;SDS011;3641;49.082;8.200;2022-12-08T02:51:13;33.35;;;15.15;;
7199;SDS011;3641;49.082;8.200;2022-12-08T02:53:39;35.78;;;16.27;;
7199;SDS011;3641;49.082;8.200;2022-12-08T02:56:10;33.13;;;16.25;;
7199;SDS011;3641;49.082;8.200;2022-12-08T02:58:50;31.00;;;14.60;;
7199;SDS011;3641;49.082;8.200;2022-12-08T03:01:31;29.10;;;15.20;;
7199;SDS011;3641;49.082;8.200;2022-12-08T03:04:11;30.65;;;16.33;;
7199;SDS011;3641;49.082;8.200;2022-12-08T03:06:47;30.63;;;14.93;;
7199;SDS011;3641;49.082;8.200;2022-12-08T03:09:18;33.90;;;15.18;;
7199;SDS011;3641;49.082;8.200;2022-12-08T03:11:55;34.80;;;16.15;;
7199;SDS011;3641;49.082;8.200;2022-12-08T03:14:26;33.50;;;16.38;;
7199;SDS011;3641;49.082;8.200;2022-12-08T03:16:55;33.15;;;16.48;;
7199;SDS011;3641;49.082;8.200;2022-12-08T03:19:25;30.13;;;15.32;;
7199;SDS011;3641;49.082;8.200;2022-12-08T03:21:55;35.50;;;15.60;;
7199;SDS011;3641;49.082;8.200;2022-12-08T03:24:27;32.58;;;15.10;;
7199;SDS011;3641;49.082;8.200;2022-12-08T03:26:55;34.35;;;15.48;;
7199;SDS011;3641;49.082;8.200;2022-12-08T03:29:25;34.58;;;15.88;;
7199;SDS011;3641;49.082;8.200;2022-12-08T03:31:53;35.22;;;15.50;;
7199;SDS011;3641;49.082;8.200;2022-12-08T03:34:22;34.22;;;16.30;;
7199;SDS011;3641;49.082;8.200;2022-12-08T03:36:52;32.45;;;16.10;;
7199;SDS011;3641;49.082;8.200;2022-12-08T03:39:20;30.65;;;15.32;;
7199;SDS011;3641;49.082;8.200;2022-12-08T03:41:47;31.27;;;14.77;;
7199;SDS011;3641;49.082;8.200;2022-12-08T03:44:13;34.95;;;16.27;;
7199;SDS011;3641;49.082;8.200;2022-12-08T03:46:39;33.35;;;16.23;;
7199;SDS011;3641;49.082;8.200;2022-12-08T03:49:06;34.00;;;16.83;;
7199;SDS011;3641;49.082;8.200;2022-12-08T03:51:32;37.35;;;16.55;;
7199;SDS011;3641;49.082;8.200;2022-12-08T03:53:59;34.05;;;15.60;;
7199;SDS011;3641;49.082;8.200;2022-12-08T03:56:27;30.95;;;14.57;;
7199;SDS011;3641;49.082;8.200;2022-12-08T03:58:55;35.72;;;16.10;;
7199;SDS011;3641;49.082;8.200;2022-12-08T04:01:22;31.77;;;15.48;;
7199;SDS011;3641;49.082;8.200;2022-12-08T04:03:49;32.42;;;15.60;;
7199;SDS011;3641;49.082;8.200;2022-12-08T04:06:16;37.33;;;16.35;;
7199;SDS011;3641;49.082;8.200;2022-12-08T04:08:43;34.45;;;16.08;;
7199;SDS011;3641;49.082;8.200;2022-12-08T04:11:10;38.97;;;16.75;;
7199;SDS011;3641;49.082;8.200;2022-12-08T04:13:38;35.10;;;16.08;;
7199;SDS011;3641;49.082;8.200;2022-12-08T04:16:06;32.65;;;15.25;;
7199;SDS011;3641;49.082;8.200;2022-12-08T04:18:33;35.75;;;16.75;;
7199;SDS011;3641;49.082;8.200;2022-12-08T04:21:00;33.35;;;15.80;;
7199;SDS011;3641;49.082;8.200;2022-12-08T04:23:27;35.45;;;16.05;;
7199;SDS011;3641;49.082;8.200;2022-12-08T04:25:53;37.70;;;15.90;;
7199;SDS011;3641;49.082;8.200;2022-12-08T04:28:20;32.63;;;14.75;;
7199;SDS011;3641;49.082;8.200;2022-12-08T04:30:48;32.40;;;15.48;;
7199;SDS011;3641;49.082;8.200;2022-12-08T04:33:15;32.65;;;15.10;;
7199;SDS011;3641;49.082;8.200;2022-12-08T04:35:42;34.00;;;16.10;;
7199;SDS011;3641;49.082;8.200;2022-12-08T04:38:08;36.80;;;15.73;;
7199;SDS011;3641;49.082;8.200;2022-12-08T04:40:35;36.33;;;16.27;;
7199;SDS011;3641;49.082;8.200;2022-12-08T04:43:01;37.72;;;15.77;;
7199;SDS011;3641;49.082;8.200;2022-12-08T04:45:28;33.17;;;15.30;;
7199;SDS011;3641;49.082;8.200;2022-12-08T04:47:56;35.95;;;16.00;;
7199;SDS011;3641;49.082;8.200;2022-12-08T04:50:24;34.65;;;15.43;;
7199;SDS011;3641;49.082;8.200;2022-12-08T04:52:50;39.10;;;16.70;;
7199;SDS011;3641;49.082;8.200;2022-12-08T04:55:17;35.92;;;16.20;;
7199;SDS011;3641;49.082;8.200;2022-12-08T04:57:43;35.08;;;17.08;;
7199;SDS011;3641;49.082;8.200;2022-12-08T05:00:10;35.83;;;16.25;;
7199;SDS011;3641;49.082;8.200;2022-12-08T05:02:37;38.53;;;17.30;;
7199;SDS011;3641;49.082;8.200;2022-12-08T05:05:06;39.60;;;18.17;;
7199;SDS011;3641;49.082;8.200;2022-12-08T05:07:32;38.13;;;16.77;;
7199;SDS011;3641;49.082;8.200;2022-12-08T05:09:59;40.95;;;17.67;;
7199;SDS011;3641;49.082;8.200;2022-12-08T05:12:25;34.97;;;17.80;;
7199;SDS011;3641;49.082;8.200;2022-12-08T05:14:52;39.55;;;18.35;;
7199;SDS011;3641;49.082;8.200;2022-12-08T05:17:18;40.20;;;18.92;;
7199;SDS011;3641;49.082;8.200;2022-12-08T05:19:45;38.90;;;18.52;;
7199;SDS011;3641;49.082;8.200;2022-12-08T05:22:13;47.13;;;20.65;;
7199;SDS011;3641;49.082;8.200;2022-12-08T05:24:40;41.22;;;20.30;;
7199;SDS011;3641;49.082;8.200;2022-12-08T05:27:06;40.97;;;20.35;;
7199;SDS011;3641;49.082;8.200;2022-12-08T05:29:34;40.53;;;19.58;;
7199;SDS011;3641;49.082;8.200;2022-12-08T05:32:00;42.80;;;20.05;;
7199;SDS011;3641;49.082;8.200;2022-12-08T05:34:27;45.15;;;20.42;;
7199;SDS011;3641;49.082;8.200;2022-12-08T05:36:53;42.75;;;19.60;;
7199;SDS011;3641;49.082;8.200;2022-12-08T05:39:21;41.67;;;20.38;;
7199;SDS011;3641;49.082;8.200;2022-12-08T05:41:47;38.45;;;19.45;;
7199;SDS011;3641;49.082;8.200;2022-12-08T05:44:14;43.97;;;20.73;;
7199;SDS011;3641;49.082;8.200;2022-12-08T05:46:40;40.53;;;20.05;;
7199;SDS011;3641;49.082;8.200;2022-12-08T05:49:07;43.13;;;20.40;;
7199;SDS011;3641;49.082;8.200;2022-12-08T05:51:33;41.60;;;19.55;;
7199;SDS011;3641;49.082;8.200;2022-12-08T05:54:00;37.67;;;18.88;;
7199;SDS011;3641;49.082;8.200;2022-12-08T05:56:27;40.30;;;18.58;;
7199;SDS011;3641;49.082;8.200;2022-12-08T05:58:54;38.38;;;18.40;;
7199;SDS011;3641;49.082;8.200;2022-12-08T06:01:21;39.25;;;18.52;;
7199;SDS011;3641;49.082;8.200;2022-12-08T06:03:49;37.80;;;18.23;;
7199;SDS011;3641;49.082;8.200;2022-12-08T06:06:15;38.05;;;18.27;;
7199;SDS011;3641;49.082;8.200;2022-12-08T06:08:42;38.25;;;17.77;;
7199;SDS011;3641;49.082;8.200;2022-12-08T06:11:08;38.90;;;18.15;;
7199;SDS011;3641;49.082;8.200;2022-12-08T06:13:37;35.92;;;16.73;;
7199;SDS011;3641;49.082;8.200;2022-12-08T06:16:03;38.08;;;17.42;;
7199;SDS011;3641;49.082;8.200;2022-12-08T06:18:31;41.38;;;17.90;;
7199;SDS011;3641;49.082;8.200;2022-12-08T06:21:01;37.08;;;17.88;;
7199;SDS011;3641;49.082;8.200;2022-12-08T06:23:28;37.10;;;17.90;;
7199;SDS011;3641;49.082;8.200;2022-12-08T06:25:58;34.92;;;17.05;;
7199;SDS011;3641;49.082;8.200;2022-12-08T06:28:25;39.83;;;18.63;;
7199;SDS011;3641;49.082;8.200;2022-12-08T06:30:53;38.78;;;17.88;;
7199;SDS011;3641;49.082;8.200;2022-12-08T06:33:20;36.10;;;17.63;;
7199;SDS011;3641;49.082;8.200;2022-12-08T06:35:46;37.30;;;16.98;;
7199;SDS011;3641;49.082;8.200;2022-12-08T06:38:13;32.55;;;16.13;;
7199;SDS011;3641;49.082;8.200;2022-12-08T06:40:40;31.25;;;15.27;;
7199;SDS011;3641;49.082;8.200;2022-12-08T06:43:07;32.05;;;16.63;;
7199;SDS011;3641;49.082;8.200;2022-12-08T06:45:33;32.13;;;15.73;;
7199;SDS011;3641;49.082;8.200;2022-12-08T06:48:01;26.95;;;14.27;;
7199;SDS011;3641;49.082;8.200;2022-12-08T06:50:28;28.58;;;14.00;;
7199;SDS011;3641;49.082;8.200;2022-12-08T06:52:56;34.28;;;14.98;;
7199;SDS011;3641;49.082;8.200;2022-12-08T06:55:23;29.35;;;13.63;;
7199;SDS011;3641;49.082;8.200;2022-12-08T06:57:49;30.00;;;14.18;;
7199;SDS011;3641;49.082;8.200;2022-12-08T07:00:16;27.20;;;12.85;;
7199;SDS011;3641;49.082;8.200;2022-12-08T07:02:43;28.35;;;13.27;;
7199;SDS011;3641;49.082;8.200;2022-12-08T07:05:12;27.33;;;13.07;;
7199;SDS011;3641;49.082;8.200;2022-12-08T07:07:39;29.17;;;14.05;;
7199;SDS011;3641;49.082;8.200;2022-12-08T07:10:06;28.85;;;13.43;;
7199;SDS011;3641;49.082;8.200;2022-12-08T07:12:33;27.73;;;14.30;;
7199;SDS011;3641;49.082;8.200;2022-12-08T07:14:59;28.60;;;14.45;;
7199;SDS011;3641;49.082;8.200;2022-12-08T07:17:26;36.92;;;15.57;;
7199;SDS011;3641;49.082;8.200;2022-12-08T07:19:52;30.77;;;15.80;;
7199;SDS011;3641;49.082;8.200;2022-12-08T07:22:20;33.60;;;15.68;;
7199;SDS011;3641;49.082;8.200;2022-12-08T07:24:47;30.17;;;15.38;;
7199;SDS011;3641;49.082;8.200;2022-12-08T07:27:13;32.60;;;16.27;;
7199;SDS011;3641;49.082;8.200;2022-12-08T07:29:40;38.15;;;17.05;;
7199;SDS011;3641;49.082;8.200;2022-12-08T07:32:06;33.30;;;17.33;;
7199;SDS011;3641;49.082;8.200;2022-12-08T07:34:33;34.70;;;16.58;;
7199;SDS011;3641;49.082;8.200;2022-12-08T07:36:59;36.33;;;17.40;;
7199;SDS011;3641;49.082;8.200;2022-12-08T07:39:28;35.97;;;18.10;;
7199;SDS011;3641;49.082;8.200;2022-12-08T07:41:55;32.92;;;16.50;;
7199;SDS011;3641;49.082;8.200;2022-12-08T07:44:21;34.88;;;16.20;;
7199;SDS011;3641;49.082;8.200;2022-12-08T07:46:47;34.00;;;17.05;;
7199;SDS011;3641;49.082;8.200;2022-12-08T07:49:14;42.40;;;18.75;;
7199;SDS011;3641;49.082;8.200;2022-12-08T07:51:40;38.50;;;18.08;;
7199;SDS011;3641;49.082;8.200;2022-12-08T07:54:08;39.08;;;18.27;;
7199;SDS011;3641;49.082;8.200;2022-12-08T07:56:37;39.67;;;19.10;;
7199;SDS011;3641;49.082;8.200;2022-12-08T07:59:04;36.75;;;18.05;;
7199;SDS011;3641;49.082;8.200;2022-12-08T08:01:31;39.50;;;18.80;;
7199;SDS011;3641;49.082;8.200;2022-12-08T08:03:59;39.95;;;19.30;;
7199;SDS011;3641;49.082;8.200;2022-12-08T08:06:28;34.45;;;18.05;;
7199;SDS011;3641;49.082;8.200;2022-12-08T08:08:55;47.05;;;19.73;;
7199;SDS011;3641;49.082;8.200;2022-12-08T08:11:22;40.85;;;19.15;;
7199;SDS011;3641;49.082;8.200;2022-12-08T08:13:50;38.92;;;19.02;;
7199;SDS011;3641;49.082;8.200;2022-12-08T08:16:17;38.95;;;19.48;;
7199;SDS011;3641;49.082;8.200;2022-12-08T08:18:45;38.53;;;19.45;;
7199;SDS011;3641;49.082;8.200;2022-12-08T08:21:12;37.72;;;19.63;;
7199;SDS011;3641;49.082;8.200;2022-12-08T08:23:39;41.72;;;19.80;;
7199;SDS011;3641;49.082;8.200;2022-12-08T08:26:05;39.45;;;18.80;;
7199;SDS011;3641;49.082;8.200;2022-12-08T08:28:32;40.35;;;19.67;;
7199;SDS011;3641;49.082;8.200;2022-12-08T08:31:00;39.97;;;19.60;;
7199;SDS011;3641;49.082;8.200;2022-12-08T08:33:27;37.58;;;18.75;;
7199;SDS011;3641;49.082;8.200;2022-12-08T08:35:53;38.45;;;19.48;;
7199;SDS011;3641;49.082;8.200;2022-12-08T08:38:20;40.10;;;20.00;;
7199;SDS011;3641;49.082;8.200;2022-12-08T08:40:47;36.22;;;17.27;;
7199;SDS011;3641;49.082;8.200;2022-12-08T08:43:13;38.50;;;19.23;;
7199;SDS011;3641;49.082;8.200;2022-12-08T08:45:54;31.92;;;15.88;;
7199;SDS011;3641;49.082;8.200;2022-12-08T08:48:22;32.42;;;17.08;;
7199;SDS011;3641;49.082;8.200;2022-12-08T08:50:49;35.50;;;17.33;;
7199;SDS011;3641;49.082;8.200;2022-12-08T08:53:15;32.28;;;15.85;;
7199;SDS011;3641;49.082;8.200;2022-12-08T08:55:42;32.63;;;15.68;;
7199;SDS011;3641;49.082;8.200;2022-12-08T08:58:08;28.85;;;15.02;;
7199;SDS011;3641;49.082;8.200;2022-12-08T09:00:35;34.95;;;15.60;;
7199;SDS011;3641;49.082;8.200;2022-12-08T09:03:01;30.63;;;14.95;;
7199;SDS011;3641;49.082;8.200;2022-12-08T09:05:29;31.40;;;14.27;;
7199;SDS011;3641;49.082;8.200;2022-12-08T09:07:56;31.65;;;15.05;;
7199;SDS011;3641;49.082;8.200;2022-12-08T09:10:22;29.85;;;14.43;;
7199;SDS011;3641;49.082;8.200;2022-12-08T09:12:49;30.63;;;14.77;;
7199;SDS011;3641;49.082;8.200;2022-12-08T09:15:15;30.58;;;15.13;;
7199;SDS011;3641;49.082;8.200;2022-12-08T09:17:44;34.35;;;15.05;;
7199;SDS011;3641;49.082;8.200;2022-12-08T09:20:11;29.05;;;14.02;;
7199;SDS011;3641;49.082;8.200;2022-12-08T09:22:39;27.77;;;14.65;;
7199;SDS011;3641;49.082;8.200;2022-12-08T09:25:05;30.48;;;14.50;;
7199;SDS011;3641;49.082;8.200;2022-12-08T09:27:32;33.65;;;14.02;;
7199;SDS011;3641;49.082;8.200;2022-12-08T09:29:59;25.95;;;13.55;;
7199;SDS011;3641;49.082;8.200;2022-12-08T09:32:25;29.30;;;13.63;;
7199;SDS011;3641;49.082;8.200;2022-12-08T09:34:51;23.75;;;12.55;;
7199;SDS011;3641;49.082;8.200;2022-12-08T09:37:18;26.35;;;12.40;;
7199;SDS011;3641;49.082;8.200;2022-12-08T09:39:46;24.67;;;12.27;;
7199;SDS011;3641;49.082;8.200;2022-12-08T09:42:13;24.77;;;12.25;;
7199;SDS011;3641;49.082;8.200;2022-12-08T09:44:51;25.80;;;12.43;;
7199;SDS011;3641;49.082;8.200;2022-12-08T09:47:25;23.20;;;12.13;;
7199;SDS011;3641;49.082;8.200;2022-12-08T09:49:56;27.85;;;12.85;;
7199;SDS011;3641;49.082;8.200;2022-12-08T09:52:29;22.98;;;12.15;;
7199;SDS011;3641;49.082;8.200;2022-12-08T09:55:02;25.00;;;12.68;;
7199;SDS011;3641;49.082;8.200;2022-12-08T09:57:34;25.27;;;12.63;;
7199;SDS011;3641;49.082;8.200;2022-12-08T10:00:04;23.45;;;11.88;;
7199;SDS011;3641;49.082;8.200;2022-12-08T10:02:32;26.70;;;12.77;;
7199;SDS011;3641;49.082;8.200;2022-12-08T10:04:59;24.60;;;11.18;;
7199;SDS011;3641;49.082;8.200;2022-12-08T10:07:26;26.13;;;11.98;;
7199;SDS011;3641;49.082;8.200;2022-12-08T10:10:04;23.27;;;11.48;;
7199;SDS011;3641;49.082;8.200;2022-12-08T10:12:38;22.17;;;10.90;;
7199;SDS011;3641;49.082;8.200;2022-12-08T10:15:28;20.60;;;10.38;;
7199;SDS011;3641;49.082;8.200;2022-12-08T10:18:02;22.05;;;10.55;;
7199;SDS011;3641;49.082;8.200;2022-12-08T10:20:37;22.88;;;10.57;;
7199;SDS011;3641;49.082;8.200;2022-12-08T10:23:06;22.42;;;10.95;;
7199;SDS011;3641;49.082;8.200;2022-12-08T10:25:43;23.45;;;10.63;;
7199;SDS011;3641;49.082;8.200;2022-12-08T10:28:11;25.88;;;10.93;;
7199;SDS011;3641;49.082;8.200;2022-12-08T10:30:38;22.73;;;10.88;;
7199;SDS011;3641;49.082;8.200;2022-12-08T10:33:04;24.52;;;10.45;;
7199;SDS011;3641;49.082;8.200;2022-12-08T10:35:42;19.42;;;9.90;;
7199;SDS011;3641;49.082;8.200;2022-12-08T10:38:17;31.70;;;18.38;;
7199;SDS011;3641;49.082;8.200;2022-12-08T10:40:48;23.65;;;14.82;;
7199;SDS011;3641;49.082;8.200;2022-12-08T10:43:16;20.73;;;10.20;;
7199;SDS011;3641;49.082;8.200;2022-12-08T10:45:47;21.98;;;10.05;;
7199;SDS011;3641;49.082;8.200;2022-12-08T10:48:15;20.75;;;10.25;;
7199;SDS011;3641;49.082;8.200;2022-12-08T10:50:44;20.85;;;10.48;;
7199;SDS011;3641;49.082;8.200;2022-12-08T10:53:12;21.75;;;10.45;;
7199;SDS011;3641;49.082;8.200;2022-12-08T10:55:41;21.33;;;10.90;;
7199;SDS011;3641;49.082;8.200;2022-12-08T11:00:53;21.20;;;10.85;;
7199;SDS011;3641;49.082;8.200;2022-12-08T11:03:22;25.42;;;11.00;;
7199;SDS011;3641;49.082;8.200;2022-12-08T11:05:54;29.55;;;11.27;;
7199;SDS011;3641;49.082;8.200;2022-12-08T11:08:22;19.83;;;10.13;;
7199;SDS011;3641;49.082;8.200;2022-12-08T11:10:49;22.52;;;11.70;;
7199;SDS011;3641;49.082;8.200;2022-12-08T11:13:17;21.38;;;11.25;;
7199;SDS011;3641;49.082;8.200;2022-12-08T11:15:48;20.98;;;10.70;;
7199;SDS011;3641;49.082;8.200;2022-12-08T11:18:20;20.65;;;10.82;;
7199;SDS011;3641;49.082;8.200;2022-12-08T11:20:55;19.42;;;10.00;;
7199;SDS011;3641;49.082;8.200;2022-12-08T11:23:24;20.90;;;11.15;;
7199;SDS011;3641;49.082;8.200;2022-12-08T11:25:52;23.08;;;11.27;;
7199;SDS011;3641;49.082;8.200;2022-12-08T11:28:23;21.30;;;11.27;;
7199;SDS011;3641;49.082;8.200;2022-12-08T11:30:53;29.20;;;11.52;;
7199;SDS011;3641;49.082;8.200;2022-12-08T11:33:25;21.70;;;11.55;;
7199;SDS011;3641;49.082;8.200;2022-12-08T11:35:53;21.63;;;10.90;;
7199;SDS011;3641;49.082;8.200;2022-12-08T11:38:25;21.25;;;10.98;;
7199;SDS011;3641;49.082;8.200;2022-12-08T11:40:53;23.40;;;11.93;;
7199;SDS011;3641;49.082;8.200;2022-12-08T11:43:24;22.65;;;11.45;;
7199;SDS011;3641;49.082;8.200;2022-12-08T11:45:58;20.80;;;11.48;;
7199;SDS011;3641;49.082;8.200;2022-12-08T11:48:27;24.42;;;12.10;;
7199;SDS011;3641;49.082;8.200;2022-12-08T11:50:58;20.92;;;11.45;;
7199;SDS011;3641;49.082;8.200;2022-12-08T11:53:29;21.83;;;11.75;;
7199;SDS011;3641;49.082;8.200;2022-12-08T11:56:04;21.73;;;11.70;;
7199;SDS011;3641;49.082;8.200;2022-12-08T11:58:37;22.95;;;12.38;;
7199;SDS011;3641;49.082;8.200;2022-12-08T12:01:09;21.02;;;11.45;;
7199;SDS011;3641;49.082;8.200;2022-12-08T12:03:44;21.55;;;10.82;;
7199;SDS011;3641;49.082;8.200;2022-12-08T12:06:22;24.73;;;12.77;;
7199;SDS011;3641;49.082;8.200;2022-12-08T12:09:15;23.90;;;12.60;;
7199;SDS011;3641;49.082;8.200;2022-12-08T12:11:47;21.55;;;11.73;;
7199;SDS011;3641;49.082;8.200;2022-12-08T12:14:55;22.85;;;12.05;;
7199;SDS011;3641;49.082;8.200;2022-12-08T12:17:41;20.77;;;11.25;;
7199;SDS011;3641;49.082;8.200;2022-12-08T12:20:13;23.20;;;12.00;;
7199;SDS011;3641;49.082;8.200;2022-12-08T12:22:45;23.98;;;11.60;;
7199;SDS011;3641;49.082;8.200;2022-12-08T12:25:17;22.58;;;11.65;;
7199;SDS011;3641;49.082;8.200;2022-12-08T12:27:46;21.98;;;12.40;;
7199;SDS011;3641;49.082;8.200;2022-12-08T12:30:18;21.20;;;11.95;;
7199;SDS011;3641;49.082;8.200;2022-12-08T12:32:50;23.27;;;11.88;;
7199;SDS011;3641;49.082;8.200;2022-12-08T12:35:20;23.15;;;12.40;;
7199;SDS011;3641;49.082;8.200;2022-12-08T12:37:54;25.42;;;12.45;;
7199;SDS011;3641;49.082;8.200;2022-12-08T12:40:23;24.13;;;12.60;;
7199;SDS011;3641;49.082;8.200;2022-12-08T12:45:38;23.58;;;11.80;;
7199;SDS011;3641;49.082;8.200;2022-12-08T12:48:22;21.80;;;11.27;;
7199;SDS011;3641;49.082;8.200;2022-12-08T12:50:50;23.05;;;11.63;;
7199;SDS011;3641;49.082;8.200;2022-12-08T12:59:39;23.60;;;11.85;;
7199;SDS011;3641;49.082;8.200;2022-12-08T13:02:15;19.60;;;10.60;;
7199;SDS011;3641;49.082;8.200;2022-12-08T13:04:51;20.63;;;11.07;;
7199;SDS011;3641;49.082;8.200;2022-12-08T13:07:21;22.77;;;11.00;;
7199;SDS011;3641;49.082;8.200;2022-12-08T13:09:54;19.75;;;10.55;;
7199;SDS011;3641;49.082;8.200;2022-12-08T13:12:23;19.50;;;10.18;;
7199;SDS011;3641;49.082;8.200;2022-12-08T13:14:52;17.50;;;10.45;;
7199;SDS011;3641;49.082;8.200;2022-12-08T13:17:24;17.20;;;9.80;;
7199;SDS011;3641;49.082;8.200;2022-12-08T13:19:57;19.52;;;10.25;;
7199;SDS011;3641;49.082;8.200;2022-12-08T13:28:23;16.15;;;9.27;;
7199;SDS011;3641;49.082;8.200;2022-12-08T13:30:52;16.30;;;9.43;;
7199;SDS011;3641;49.082;8.200;2022-12-08T13:33:27;16.25;;;8.52;;
7199;SDS011;3641;49.082;8.200;2022-12-08T13:36:01;20.27;;;10.00;;
7199;SDS011;3641;49.082;8.200;2022-12-08T13:38:35;20.70;;;10.70;;
7199;SDS011;3641;49.082;8.200;2022-12-08T13:41:06;18.10;;;10.30;;
7199;SDS011;3641;49.082;8.200;2022-12-08T13:43:41;19.35;;;10.73;;
7199;SDS011;3641;49.082;8.200;2022-12-08T13:46:12;22.63;;;10.18;;
7199;SDS011;3641;49.082;8.200;2022-12-08T13:48:46;20.70;;;10.18;;
7199;SDS011;3641;49.082;8.200;2022-12-08T13:51:18;19.80;;;10.82;;
7199;SDS011;3641;49.082;8.200;2022-12-08T13:53:51;19.08;;;11.48;;
7199;SDS011;3641;49.082;8.200;2022-12-08T13:56:23;20.20;;;11.10;;
7199;SDS011;3641;49.082;8.200;2022-12-08T13:58:53;19.42;;;11.13;;
7199;SDS011;3641;49.082;8.200;2022-12-08T14:01:32;19.77;;;10.75;;
7199;SDS011;3641;49.082;8.200;2022-12-08T14:04:11;19.77;;;12.02;;
7199;SDS011;3641;49.082;8.200;2022-12-08T14:06:42;25.13;;;13.80;;
7199;SDS011;3641;49.082;8.200;2022-12-08T14:09:11;29.05;;;13.93;;
7199;SDS011;3641;49.082;8.200;2022-12-08T14:11:41;33.85;;;18.80;;
7199;SDS011;3641;49.082;8.200;2022-12-08T14:14:13;30.90;;;17.27;;
7199;SDS011;3641;49.082;8.200;2022-12-08T14:16:47;24.38;;;13.30;;
7199;SDS011;3641;49.082;8.200;2022-12-08T14:19:16;22.88;;;11.55;;
7199;SDS011;3641;49.082;8.200;2022-12-08T14:21:47;21.48;;;11.77;;
7199;SDS011;3641;49.082;8.200;2022-12-08T14:24:19;22.08;;;11.32;;
7199;SDS011;3641;49.082;8.200;2022-12-08T14:26:47;22.30;;;11.30;;
7199;SDS011;3641;49.082;8.200;2022-12-08T14:29:32;22.88;;;11.95;;
7199;SDS011;3641;49.082;8.200;2022-12-08T14:32:04;21.35;;;11.38;;
7199;SDS011;3641;49.082;8.200;2022-12-08T14:34:33;25.10;;;11.95;;
7199;SDS011;3641;49.082;8.200;2022-12-08T14:37:06;25.73;;;12.10;;
7199;SDS011;3641;49.082;8.200;2022-12-08T14:39:37;24.08;;;12.50;;
7199;SDS011;3641;49.082;8.200;2022-12-08T14:42:04;26.23;;;13.48;;
7199;SDS011;3641;49.082;8.200;2022-12-08T14:44:31;24.92;;;13.10;;
7199;SDS011;3641;49.082;8.200;2022-12-08T14:47:03;22.95;;;11.25;;
7199;SDS011;3641;49.082;8.200;2022-12-08T14:49:31;18.98;;;11.32;;
7199;SDS011;3641;49.082;8.200;2022-12-08T14:51:59;21.85;;;11.68;;
7199;SDS011;3641;49.082;8.200;2022-12-08T14:54:29;22.08;;;11.45;;
7199;SDS011;3641;49.082;8.200;2022-12-08T14:56:56;20.98;;;11.50;;
7199;SDS011;3641;49.082;8.200;2022-12-08T14:59:25;20.67;;;11.00;;
7199;SDS011;3641;49.082;8.200;2022-12-08T15:02:09;21.95;;;11.07;;
7199;SDS011;3641;49.082;8.200;2022-12-08T15:04:39;21.73;;;11.27;;
7199;SDS011;3641;49.082;8.200;2022-12-08T15:07:11;21.40;;;11.25;;
7199;SDS011;3641;49.082;8.200;2022-12-08T15:09:42;19.35;;;10.43;;
7199;SDS011;3641;49.082;8.200;2022-12-08T15:12:19;19.25;;;10.30;;
7199;SDS011;3641;49.082;8.200;2022-12-08T15:14:54;19.60;;;9.85;;
7199;SDS011;3641;49.082;8.200;2022-12-08T15:17:28;16.23;;;8.15;;
7199;SDS011;3641;49.082;8.200;2022-12-08T15:19:58;18.00;;;8.90;;
7199;SDS011;3641;49.082;8.200;2022-12-08T15:22:26;14.32;;;7.75;;